Canefield Airport

Partly cloudy and slightly hazy with adjacent showers
28oC (82oF)

Partly cloudy and slightly hazy with adjacent showers


Winds: Easterly @ 03kts / 06km/h

Humidity: 68%

Barometric Pressure: 1012 mb

Accumulated Rainfall for September: 85.7 mm

Updated: 18:00 local time (22:00 UTC)

Douglas-Charles Airport

Cloudy with slight haze and adjacent showers
26oC (79oF)

Cloudy with slight haze and adjacent showers


Winds: North easterly @ 02kts / 04km/h

Humidity: 92%

Barometric Pressure: 1014 mb

Accumulated Rainfall for September: 203.5 mm

Updated: 20:00 local time (00:00 UTC)

Satellite Imagery

Satellite Imagery
Click image for larger view. (Source: National Hurricane Center).

Aviation Routine Report (METAR)

Douglas-Charles: METAR TDPD 190000Z 05002KT 9000 BKN015 26/24 Q1014=
Canefield: METAR TDCF 182200Z 10003KT 9999 FEW016TCU 28/22 Q1012=